KIPL

Imperial County Airport

Imperial, California, USA
METAR KIPL 231553Z AUTO 24012KT 10SM CLR 13/02 A3014 RMK AO2 SLP205 T01280022
Observed Flight Rules
Feb-23 @ 15:53 UTC (41 minutes ago) Visual Flight Rules
Wind Visibility Clouds
240° at 12 knots 10 miles
  • Clear skies
Temperatures Readings
Current 13°C / 55°F
Dewpoint 2°C / 36°F
Humidity 47%
Altimeter 30.14" Hg
Pressure 1020.5 hPa
Elevation -17
METAR KIPL 231553Z AUTO 24012KT 10SM CLR 13/02 A3014 RMK AO2 SLP205 T01280022
Observed Flight Rules
Feb-23 @ 15:53 UTC
(41 minutes ago)
VFR
Wind Visibility
240° at 12 knots 10 miles
Clouds
  • Clear skies
Temperature Dewpoint
13°C / 55°F 2°C / 36°F
Humidity Altimeter Pressure
47% 30.14" Hg 1020.5 hPa